Time;durP1;ratioP1;P1;durP2;ratioP2;P2;SDS_P1;SDS_P2;PMS_P1;PMS_P2;Temp;Humidity;BMP_temperature;BMP_pressure;BME280_temperature;BME280_humidity;BME280_pressure;Samples;Min_cycle;Max_cycle;Signal;HPM_P1;HPM_P2
2023/10/05 00:01:20;;;;;;;12.00;4.15;;;12.50;82.60;;;;;;5011472;28;20050;-65
2023/10/05 00:03:51;;;;;;;14.45;3.85;;;12.50;82.60;;;;;;5012584;28;20086;-66
2023/10/05 00:06:23;;;;;;;12.68;3.30;;;12.50;82.70;;;;;;5008768;28;20045;-66
2023/10/05 00:08:52;;;;;;;15.55;3.40;;;12.50;82.70;;;;;;5014889;28;20112;-66
2023/10/05 00:11:23;;;;;;;12.82;3.42;;;12.50;82.60;;;;;;5002089;28;20128;-66
2023/10/05 00:13:57;;;;;;;13.90;3.83;;;12.50;82.60;;;;;;5008335;28;20058;-66
2023/10/05 00:16:23;;;;;;;11.45;3.40;;;12.50;82.60;;;;;;5013557;28;20127;-65
2023/10/05 00:18:51;;;;;;;11.00;3.33;;;12.50;82.80;;;;;;5017264;28;20050;-66
2023/10/05 00:21:21;;;;;;;13.68;3.38;;;12.50;82.80;;;;;;5010970;28;20475;-66
2023/10/05 00:23:53;;;;;;;13.77;3.50;;;12.50;82.80;;;;;;5010194;28;20053;-65
2023/10/05 00:26:20;;;;;;;9.75;3.05;;;12.50;82.80;;;;;;5009232;28;20057;-66
2023/10/05 00:28:53;;;;;;;14.88;3.72;;;12.50;82.90;;;;;;5009952;28;20658;-66
2023/10/05 00:31:23;;;;;;;12.65;3.45;;;12.50;82.90;;;;;;5029624;28;20060;-66
2023/10/05 00:33:55;;;;;;;10.25;3.17;;;12.50;82.90;;;;;;5018271;28;20045;-66
2023/10/05 00:36:24;;;;;;;14.02;3.85;;;12.50;82.90;;;;;;5006037;28;20053;-66
2023/10/05 00:38:50;;;;;;;9.68;3.50;;;12.50;82.90;;;;;;5024660;28;20104;-66
2023/10/05 00:41:16;;;;;;;9.75;3.83;;;12.50;82.90;;;;;;5010708;28;20056;-66
2023/10/05 00:43:46;;;;;;;13.13;3.40;;;12.50;83.00;;;;;;5009194;28;20050;-67
2023/10/05 00:46:12;;;;;;;13.50;3.70;;;12.50;82.90;;;;;;5010782;28;20050;-66
2023/10/05 00:48:54;;;;;;;16.08;3.75;;;12.50;82.80;;;;;;5025221;28;20564;-66
2023/10/05 00:51:26;;;;;;;;;;;12.50;82.70;;;;;;5031498;28;20116;-66
2023/10/05 00:53:53;;;;;;;12.63;3.90;;;12.50;82.70;;;;;;5030357;28;20335;-66
2023/10/05 00:56:23;;;;;;;14.48;3.30;;;12.50;82.70;;;;;;5030524;28;20045;-66
2023/10/05 00:58:54;;;;;;;11.25;3.60;;;12.50;82.60;;;;;;5010594;28;20055;-66
2023/10/05 01:01:27;;;;;;;16.80;3.75;;;12.50;82.60;;;;;;5010183;28;20068;-66
2023/10/05 01:04:23;;;;;;;9.27;2.97;;;12.50;82.60;;;;;;5010583;28;20409;-66
2023/10/05 01:06:55;;;;;;;15.88;3.80;;;12.50;82.50;;;;;;5010457;28;20081;-66
2023/10/05 01:12:21;;;;;;;15.63;3.58;;;12.50;82.40;;;;;;4998706;28;20424;-66
2023/10/05 01:14:52;;;;;;;16.35;3.72;;;12.50;82.40;;;;;;5025146;28;20058;-66
2023/10/05 01:17:30;;;;;;;13.05;3.63;;;12.50;82.50;;;;;;5019355;28;20384;-66
2023/10/05 01:20:05;;;;;;;14.13;3.35;;;12.50;82.50;;;;;;5008690;28;20145;-66
2023/10/05 01:22:40;;;;;;;15.98;3.75;;;12.50;82.40;;;;;;5022190;28;20441;-66
2023/10/05 01:25:08;;;;;;;17.95;3.75;;;12.60;82.40;;;;;;5014568;28;20046;-66
2023/10/05 01:27:36;;;;;;;13.73;3.78;;;12.60;82.30;;;;;;5007182;28;20046;-66
2023/10/05 01:30:03;;;;;;;14.25;3.72;;;12.60;82.30;;;;;;5013918;28;20050;-66
2023/10/05 01:32:29;;;;;;;12.95;3.70;;;12.60;82.30;;;;;;5010081;28;20046;-66
2023/10/05 01:34:54;;;;;;;14.02;3.53;;;12.60;82.20;;;;;;5014542;28;20048;-66
2023/10/05 01:37:25;;;;;;;16.33;3.65;;;12.60;82.20;;;;;;5010304;28;20064;-66
2023/10/05 01:39:52;;;;;;;14.80;3.38;;;12.60;82.20;;;;;;4994354;28;20057;-66
2023/10/05 01:42:18;;;;;;;13.10;3.30;;;12.50;82.20;;;;;;5006464;28;20127;-67
2023/10/05 01:44:47;;;;;;;12.90;3.55;;;12.50;82.20;;;;;;5007947;28;20049;-66
2023/10/05 01:47:17;;;;;;;11.98;3.70;;;12.60;82.20;;;;;;5009514;28;20082;-66
2023/10/05 01:49:47;;;;;;;13.55;3.30;;;12.60;82.20;;;;;;5009727;28;20115;-66
2023/10/05 01:52:16;;;;;;;16.30;3.85;;;12.60;82.10;;;;;;5009586;28;20049;-66
2023/10/05 01:54:43;;;;;;;16.25;3.95;;;12.50;82.10;;;;;;4991241;28;20061;-66
2023/10/05 01:57:09;;;;;;;16.90;3.58;;;12.50;82.20;;;;;;5009317;28;20046;-65
2023/10/05 01:59:37;;;;;;;16.40;3.60;;;12.50;82.10;;;;;;5009691;28;20129;-66
2023/10/05 02:02:10;;;;;;;17.63;3.58;;;12.50;82.10;;;;;;5009279;28;20046;-67
2023/10/05 02:04:44;;;;;;;17.67;3.17;;;12.60;81.90;;;;;;5010338;28;20089;-66
2023/10/05 02:07:11;;;;;;;14.98;3.47;;;12.70;81.80;;;;;;5029529;28;20046;-66
2023/10/05 02:09:38;;;;;;;20.05;4.00;;;12.80;81.60;;;;;;5026489;28;20054;-66
2023/10/05 02:12:06;;;;;;;19.55;3.40;;;12.90;81.40;;;;;;5023980;28;20054;-66
2023/10/05 02:14:35;;;;;;;15.75;3.60;;;13.00;80.90;;;;;;5007149;28;20493;-67
2023/10/05 02:17:03;;;;;;;16.23;3.83;;;13.20;80.50;;;;;;5016220;28;20492;-67
2023/10/05 02:19:30;;;;;;;14.05;3.58;;;13.30;80.50;;;;;;5028584;28;20077;-65
2023/10/05 02:21:58;;;;;;;16.63;2.95;;;13.30;80.20;;;;;;5009846;28;20485;-66
2023/10/05 02:24:25;;;;;;;19.35;3.53;;;13.40;80.10;;;;;;5009107;28;20061;-66
2023/10/05 02:27:09;;;;;;;19.90;3.42;;;13.50;79.80;;;;;;5029354;28;20053;-67
2023/10/05 02:29:35;;;;;;;19.77;4.05;;;13.50;79.30;;;;;;5011936;28;20512;-67
2023/10/05 02:37:04;;;;;;;18.77;3.53;;;13.50;79.30;;;;;;5013009;28;20050;-67
2023/10/05 02:39:34;;;;;;;18.40;3.78;;;13.50;79.20;;;;;;5012506;28;20037;-66
2023/10/05 02:42:03;;;;;;;20.70;3.55;;;13.50;79.30;;;;;;5011955;28;20437;-66
2023/10/05 02:44:30;;;;;;;17.00;3.50;;;13.50;79.20;;;;;;5011762;28;20544;-66
2023/10/05 02:46:56;;;;;;;14.85;3.45;;;13.60;79.30;;;;;;5013809;28;20124;-66
2023/10/05 02:49:23;;;;;;;14.43;3.42;;;13.50;79.30;;;;;;5032526;28;20056;-67
2023/10/05 02:51:52;;;;;;;14.40;3.53;;;13.50;79.20;;;;;;5032322;28;20075;-66
2023/10/05 02:54:18;;;;;;;20.30;3.80;;;13.50;79.00;;;;;;5022697;28;20049;-67
2023/10/05 02:56:44;;;;;;;18.40;3.42;;;13.60;79.00;;;;;;5016692;28;20049;-66
2023/10/05 02:59:10;;;;;;;23.35;4.05;;;13.60;79.00;;;;;;5012664;28;20050;-66
2023/10/05 03:01:39;;;;;;;17.63;3.70;;;13.60;79.00;;;;;;5012373;28;20057;-66
2023/10/05 03:06:42;;;;;;;16.92;3.50;;;13.60;79.00;;;;;;5030618;28;20091;-67
2023/10/05 03:09:09;;;;;;;20.35;4.25;;;13.60;79.00;;;;;;5019977;28;20049;-66
2023/10/05 03:11:39;;;;;;;15.32;3.75;;;13.60;78.90;;;;;;4994295;28;20129;-67
2023/10/05 03:14:09;;;;;;;21.77;3.45;;;13.60;79.00;;;;;;5010719;28;20058;-66
2023/10/05 03:16:43;;;;;;;18.58;3.75;;;13.70;78.90;;;;;;5011548;28;20054;-66
2023/10/05 03:19:15;;;;;;;14.85;4.43;;;13.70;78.90;;;;;;5012741;28;20121;-67
2023/10/05 03:21:41;;;;;;;19.67;4.22;;;13.70;78.90;;;;;;5012378;28;20107;-68
2023/10/05 03:24:13;;;;;;;15.25;4.03;;;13.70;78.90;;;;;;5012285;28;20050;-67
2023/10/05 03:26:40;;;;;;;17.55;4.43;;;13.80;78.80;;;;;;5012181;28;20062;-65
2023/10/05 03:29:07;;;;;;;19.15;4.32;;;13.80;79.00;;;;;;5011290;28;20433;-65
2023/10/05 03:31:43;;;;;;;18.33;4.07;;;13.80;78.90;;;;;;4999489;28;20082;-65
2023/10/05 03:34:10;;;;;;;18.55;4.18;;;13.90;79.00;;;;;;5013183;28;20041;-67
2023/10/05 03:36:36;;;;;;;18.15;4.18;;;13.90;79.00;;;;;;5015961;28;20053;-66
2023/10/05 03:39:07;;;;;;;15.63;4.40;;;13.90;78.90;;;;;;5011398;28;20046;-67
2023/10/05 03:41:34;;;;;;;18.92;3.97;;;13.90;79.00;;;;;;5011944;28;20041;-67
2023/10/05 03:44:03;;;;;;;23.05;4.30;;;13.90;79.00;;;;;;5011455;28;20208;-67
2023/10/05 03:46:29;;;;;;;16.45;3.95;;;13.90;79.00;;;;;;5011183;28;20484;-66
2023/10/05 03:49:06;;;;;;;19.98;4.53;;;13.90;79.00;;;;;;5028990;28;20045;-66
2023/10/05 03:51:32;;;;;;;19.80;4.40;;;13.90;79.10;;;;;;5031004;28;20416;-67
2023/10/05 03:53:58;;;;;;;25.48;4.95;;;13.90;79.00;;;;;;5020031;28;20060;-64
2023/10/05 03:56:29;;;;;;;19.08;3.83;;;13.90;79.00;;;;;;5031992;28;20045;-66
2023/10/05 03:58:55;;;;;;;23.58;4.68;;;13.90;79.00;;;;;;5024093;28;20125;-67
2023/10/05 04:01:24;;;;;;;23.02;5.05;;;13.80;78.90;;;;;;5011529;28;20195;-66
2023/10/05 04:03:50;;;;;;;20.15;4.13;;;13.80;79.00;;;;;;4998259;28;20129;-67
2023/10/05 04:06:17;;;;;;;19.65;4.05;;;13.70;79.00;;;;;;5010632;28;20126;-67
2023/10/05 04:08:48;;;;;;;19.38;4.47;;;13.70;79.10;;;;;;5011391;28;20611;-66
2023/10/05 04:11:15;;;;;;;19.10;4.60;;;13.70;79.20;;;;;;5011495;28;20085;-67
2023/10/05 04:13:40;;;;;;;22.85;4.38;;;13.70;79.20;;;;;;5010604;28;20069;-66
2023/10/05 04:16:17;;;;;;;22.67;4.05;;;13.70;79.30;;;;;;5010608;28;20050;-67
2023/10/05 04:18:43;;;;;;;15.73;3.70;;;13.70;79.30;;;;;;5031117;28;20083;-66
2023/10/05 04:21:10;;;;;;;22.38;3.92;;;13.60;79.30;;;;;;5030724;28;20116;-67
2023/10/05 04:23:35;;;;;;;19.98;4.57;;;13.60;79.40;;;;;;5027339;28;20092;-66
2023/10/05 04:26:01;;;;;;;18.52;3.97;;;13.60;79.40;;;;;;5010827;28;20077;-66
2023/10/05 04:28:33;;;;;;;19.60;4.55;;;13.60;79.50;;;;;;5010983;28;20042;-67
2023/10/05 04:30:59;;;;;;;22.95;4.28;;;13.60;79.60;;;;;;5026275;28;20041;-65
2023/10/05 04:33:31;;;;;;;20.40;4.22;;;13.60;79.60;;;;;;5011066;28;20515;-66
2023/10/05 04:35:57;;;;;;;20.90;4.55;;;13.60;79.60;;;;;;5028305;28;20045;-65
2023/10/05 04:38:25;;;;;;;19.00;4.30;;;13.60;79.70;;;;;;5029601;28;20172;-67
2023/10/05 04:40:51;;;;;;;21.02;4.55;;;13.60;79.70;;;;;;5024836;28;20042;-66
2023/10/05 04:43:19;;;;;;;18.50;4.40;;;13.50;79.70;;;;;;5011072;28;20505;-67
2023/10/05 04:45:46;;;;;;;19.20;4.28;;;13.50;79.80;;;;;;5010310;28;20056;-65
2023/10/05 04:48:15;;;;;;;21.33;4.68;;;13.50;80.00;;;;;;5022233;28;20050;-67
2023/10/05 04:50:41;;;;;;;19.83;4.53;;;13.50;80.00;;;;;;5009446;28;20069;-66
2023/10/05 05:07:07;;;;;;;19.25;4.43;;;13.50;80.50;;;;;;4977541;28;20394;-66
2023/10/05 05:09:35;;;;;;;23.95;4.68;;;13.50;80.50;;;;;;4990309;28;20050;-67
2023/10/05 05:12:16;;;;;;;19.20;4.57;;;13.50;80.60;;;;;;4986785;28;20501;-67
2023/10/05 05:14:44;;;;;;;18.30;4.40;;;13.50;80.70;;;;;;4976294;28;20050;-68
2023/10/05 05:17:16;;;;;;;23.23;4.65;;;13.50;80.90;;;;;;4972118;28;20149;-67
2023/10/05 05:19:42;;;;;;;22.77;4.65;;;13.50;81.00;;;;;;4986501;28;20160;-66
2023/10/05 05:22:08;;;;;;;20.52;4.22;;;13.50;81.10;;;;;;4987629;28;20130;-66
2023/10/05 05:24:36;;;;;;;23.33;5.03;;;13.50;81.10;;;;;;4984464;28;20057;-67
2023/10/05 05:27:04;;;;;;;24.58;4.50;;;13.50;81.30;;;;;;4973544;28;20105;-66
2023/10/05 05:29:36;;;;;;;24.13;4.78;;;13.50;81.20;;;;;;4985766;28;20046;-66
2023/10/05 05:32:11;;;;;;;17.88;4.50;;;13.50;81.20;;;;;;4986621;28;20050;-66
2023/10/05 05:34:38;;;;;;;18.63;4.45;;;13.50;81.30;;;;;;4986690;28;20050;-66
2023/10/05 05:37:08;;;;;;;26.13;4.72;;;13.50;81.20;;;;;;4987670;28;20054;-67
2023/10/05 05:39:40;;;;;;;30.50;5.35;;;13.50;81.30;;;;;;4987894;28;20046;-66
2023/10/05 05:42:18;;;;;;;25.38;4.72;;;13.50;81.30;;;;;;4980647;28;20133;-66
2023/10/05 05:44:44;;;;;;;22.17;5.15;;;13.50;81.40;;;;;;4987317;28;20057;-66
2023/10/05 05:47:11;;;;;;;27.42;4.45;;;13.60;81.40;;;;;;4995889;28;20563;-67
2023/10/05 05:49:40;;;;;;;24.98;5.13;;;13.60;81.40;;;;;;4988787;28;20149;-67
2023/10/05 05:52:11;;;;;;;22.00;4.78;;;13.60;81.40;;;;;;5007963;28;20136;-65
2023/10/05 05:54:37;;;;;;;24.13;4.72;;;13.60;81.50;;;;;;4990453;28;20116;-66
2023/10/05 05:57:07;;;;;;;19.25;4.32;;;13.60;81.50;;;;;;4981542;28;20063;-67
2023/10/05 05:59:38;;;;;;;22.38;4.78;;;13.60;81.50;;;;;;4989696;28;20093;-67
2023/10/05 06:02:07;;;;;;;21.10;4.63;;;13.60;81.50;;;;;;4990156;28;20132;-67
2023/10/05 06:04:33;;;;;;;18.20;4.43;;;13.70;81.50;;;;;;4998529;28;20081;-68
2023/10/05 06:06:59;;;;;;;23.80;4.55;;;13.70;81.50;;;;;;4989952;28;20046;-68
2023/10/05 06:09:29;;;;;;;24.35;5.07;;;13.70;81.50;;;;;;4990454;28;20405;-66
2023/10/05 06:11:55;;;;;;;19.38;5.07;;;13.80;81.50;;;;;;4998741;28;20559;-68
2023/10/05 06:14:21;;;;;;;21.92;4.47;;;13.80;81.50;;;;;;5012911;28;20058;-66
2023/10/05 06:16:48;;;;;;;18.90;4.43;;;13.90;81.40;;;;;;5012543;28;20057;-66
2023/10/05 06:19:14;;;;;;;21.67;5.22;;;13.90;81.40;;;;;;5001066;28;20054;-64
2023/10/05 06:21:40;;;;;;;26.65;5.15;;;14.00;81.30;;;;;;4993736;28;20371;-68
2023/10/05 06:24:05;;;;;;;19.35;4.63;;;14.00;81.20;;;;;;4993692;28;20129;-69
2023/10/05 06:26:31;;;;;;;23.23;4.82;;;14.00;81.20;;;;;;4993643;28;20112;-68
2023/10/05 06:28:57;;;;;;;22.17;5.07;;;14.00;81.10;;;;;;4975183;28;20124;-65
2023/10/05 06:31:23;;;;;;;19.30;4.68;;;14.10;81.10;;;;;;5012537;28;20061;-66
2023/10/05 06:33:49;;;;;;;19.52;4.80;;;14.10;81.10;;;;;;4994911;28;20046;-66
2023/10/05 06:36:15;;;;;;;16.10;4.03;;;14.10;81.10;;;;;;5010220;28;20057;-67
2023/10/05 06:38:40;;;;;;;18.98;4.50;;;14.10;81.00;;;;;;5012803;28;20045;-68
2023/10/05 06:41:06;;;;;;;19.92;4.70;;;14.20;81.10;;;;;;5003447;28;20054;-66
2023/10/05 06:43:35;;;;;;;20.30;5.60;;;14.20;81.00;;;;;;4991816;28;20050;-67
2023/10/05 06:46:17;;;;;;;16.70;4.40;;;14.20;81.10;;;;;;4967123;28;20038;-67
2023/10/05 06:48:43;;;;;;;25.98;4.93;;;14.20;81.00;;;;;;4986864;28;20050;-66
2023/10/05 06:51:09;;;;;;;23.35;4.97;;;14.30;80.90;;;;;;4984491;28;20085;-67
2023/10/05 06:53:37;;;;;;;22.70;4.35;;;14.30;80.90;;;;;;4983305;28;20043;-68
2023/10/05 06:56:03;;;;;;;20.00;4.47;;;14.30;80.90;;;;;;4986241;28;20058;-67
2023/10/05 06:58:29;;;;;;;19.90;4.57;;;14.30;80.90;;;;;;4983880;28;20124;-68
2023/10/05 07:00:55;;;;;;;22.25;4.45;;;14.30;80.80;;;;;;4982417;28;20469;-68
2023/10/05 07:03:20;;;;;;;25.98;4.80;;;14.40;80.80;;;;;;4983488;28;20038;-68
2023/10/05 07:05:47;;;;;;;23.30;4.60;;;14.40;80.70;;;;;;4983968;28;20418;-66
2023/10/05 07:08:14;;;;;;;21.50;4.95;;;14.40;80.70;;;;;;4984410;28;20078;-67
2023/10/05 07:10:41;;;;;;;21.70;4.28;;;14.40;80.80;;;;;;4985051;28;20046;-67
2023/10/05 07:13:08;;;;;;;19.48;4.15;;;14.50;80.80;;;;;;4966647;28;20078;-66
2023/10/05 07:15:35;;;;;;;23.00;4.55;;;14.50;80.80;;;;;;4989052;28;20549;-67
2023/10/05 07:18:01;;;;;;;25.33;5.03;;;14.50;80.70;;;;;;4970321;28;20047;-66
2023/10/05 07:20:27;;;;;;;21.55;4.55;;;14.60;80.80;;;;;;4981799;28;20054;-66
2023/10/05 07:22:54;;;;;;;20.05;4.65;;;14.60;80.80;;;;;;4993340;28;20041;-67
2023/10/05 07:25:21;;;;;;;17.50;4.13;;;14.60;80.70;;;;;;4980718;28;20049;-67
2023/10/05 07:27:47;;;;;;;15.50;4.35;;;14.60;80.50;;;;;;4982536;28;20081;-68
2023/10/05 07:30:14;;;;;;;13.15;4.10;;;14.60;80.70;;;;;;4963466;28;20058;-64
2023/10/05 07:32:40;;;;;;;18.25;3.45;;;14.60;80.60;;;;;;4980395;28;20054;-66
2023/10/05 07:35:07;;;;;;;15.23;3.70;;;14.60;80.50;;;;;;4980407;28;20050;-67
2023/10/05 07:37:35;;;;;;;11.85;2.92;;;14.60;80.50;;;;;;4980920;28;20142;-66
2023/10/05 07:40:04;;;;;;;13.05;3.50;;;14.60;80.30;;;;;;4981102;28;20405;-66
2023/10/05 07:42:30;;;;;;;13.27;3.40;;;14.60;80.50;;;;;;4981054;28;20054;-64
2023/10/05 07:44:57;;;;;;;14.73;3.60;;;14.60;80.60;;;;;;4980412;28;20046;-66
2023/10/05 07:47:24;;;;;;;15.07;3.70;;;14.60;80.80;;;;;;4981184;28;20042;-67
2023/10/05 07:49:53;;;;;;;15.05;3.50;;;14.50;81.10;;;;;;4980572;28;20062;-65
2023/10/05 07:52:19;;;;;;;15.07;3.63;;;14.50;81.20;;;;;;4981710;28;20409;-66
2023/10/05 07:54:44;;;;;;;15.90;4.18;;;14.40;81.50;;;;;;4963608;28;20134;-66
2023/10/05 07:57:11;;;;;;;16.67;3.88;;;14.40;81.70;;;;;;4979671;28;20145;-67
2023/10/05 07:59:41;;;;;;;15.52;4.53;;;14.40;81.90;;;;;;4981352;28;20599;-66
2023/10/05 08:02:07;;;;;;;18.20;4.53;;;14.40;82.20;;;;;;4979951;28;20054;-68
2023/10/05 08:04:34;;;;;;;18.65;4.15;;;14.40;82.30;;;;;;4981012;28;20054;-67
2023/10/05 08:06:59;;;;;;;17.65;4.40;;;14.40;82.60;;;;;;4982000;28;20058;-67
2023/10/05 08:09:27;;;;;;;21.05;4.75;;;14.40;82.80;;;;;;4980201;28;20061;-67
2023/10/05 08:11:54;;;;;;;20.73;4.38;;;14.40;82.90;;;;;;4980666;28;20050;-68
2023/10/05 08:14:20;;;;;;;14.75;4.28;;;14.40;82.80;;;;;;4980703;28;20057;-67
2023/10/05 08:16:49;;;;;;;14.23;4.15;;;14.40;83.00;;;;;;4980415;28;20505;-65
2023/10/05 08:19:21;;;;;;;21.80;4.95;;;14.40;83.20;;;;;;4980183;28;20132;-69
2023/10/05 08:21:47;;;;;;;18.88;4.45;;;14.40;83.30;;;;;;4980295;28;20054;-68
2023/10/05 08:24:17;;;;;;;22.73;5.07;;;14.40;83.50;;;;;;4980253;28;20575;-66
2023/10/05 08:26:43;;;;;;;24.90;5.30;;;14.40;83.90;;;;;;4980962;28;20042;-68
2023/10/05 08:29:09;;;;;;;21.50;5.18;;;14.40;84.00;;;;;;4980240;28;20112;-66
2023/10/05 08:31:35;;;;;;;19.77;5.28;;;14.40;84.40;;;;;;4979361;28;20046;-65
2023/10/05 08:34:03;;;;;;;24.80;5.22;;;14.40;84.40;;;;;;4977684;28;20125;-67
2023/10/05 08:36:30;;;;;;;23.48;5.03;;;14.40;84.50;;;;;;4979481;28;20121;-66
2023/10/05 08:38:56;;;;;;;20.83;4.60;;;14.40;84.60;;;;;;4979698;28;20176;-66
2023/10/05 08:41:36;;;;;;;23.02;5.03;;;14.40;84.50;;;;;;4979530;28;20054;-68
2023/10/05 08:44:21;;;;;;;25.73;5.10;;;14.30;84.80;;;;;;4978375;28;20439;-67
2023/10/05 08:46:46;;;;;;;21.95;5.55;;;14.30;84.90;;;;;;4977476;28;20074;-68
2023/10/05 08:49:15;;;;;;;17.13;5.03;;;14.30;85.10;;;;;;4959641;28;20173;-65
2023/10/05 08:51:41;;;;;;;16.92;5.45;;;14.30;85.10;;;;;;4977334;28;20051;-67
2023/10/05 08:54:11;;;;;;;23.83;5.70;;;14.30;85.00;;;;;;4977851;28;20054;-67
2023/10/05 08:56:45;;;;;;;21.88;5.72;;;14.40;85.00;;;;;;4975433;28;20068;-68
2023/10/05 08:59:19;;;;;;;20.52;5.93;;;14.40;85.10;;;;;;4976936;28;20573;-65
2023/10/05 09:01:46;;;;;;;24.52;5.80;;;14.40;85.30;;;;;;4976726;28;20636;-67
2023/10/05 09:07:00;;;;;;;25.33;6.45;;;14.30;85.30;;;;;;4960210;28;20081;-63
2023/10/05 09:09:54;;;;;;;26.33;6.35;;;14.40;85.30;;;;;;4978627;28;20066;-68
2023/10/05 09:12:35;;;;;;;24.52;6.10;;;14.30;85.50;;;;;;4976679;28;20058;-66
2023/10/05 09:17:56;;;;;;;25.33;6.25;;;14.30;85.70;;;;;;4979274;28;20065;-68
2023/10/05 09:20:23;;;;;;;19.67;5.55;;;14.20;85.70;;;;;;4959395;28;20501;-66
2023/10/05 09:22:56;;;;;;;19.25;5.57;;;14.20;86.00;;;;;;4974986;28;20055;-66
2023/10/05 09:25:30;;;;;;;;;;;14.20;86.00;;;;;;4978098;28;20168;-67
2023/10/05 09:28:09;;;;;;;15.27;4.95;;;14.20;86.20;;;;;;4977686;28;20388;-66
2023/10/05 09:30:51;;;;;;;15.00;5.25;;;14.20;85.90;;;;;;4976264;28;20493;-64
2023/10/05 09:33:18;;;;;;;;;;;14.20;86.00;;;;;;4957308;28;20492;-66
2023/10/05 09:35:47;;;;;;;19.60;6.18;;;14.20;86.30;;;;;;4976001;28;19926;-66
2023/10/05 09:38:19;;;;;;;21.55;6.05;;;14.20;86.40;;;;;;4975121;28;20049;-63
2023/10/05 09:40:47;;;;;;;15.07;5.72;;;14.30;86.30;;;;;;4975712;28;20445;-65
2023/10/05 09:43:18;;;;;;;20.60;6.13;;;14.30;86.40;;;;;;4973861;28;20050;-64
2023/10/05 09:45:48;;;;;;;19.73;5.45;;;14.40;86.50;;;;;;4975440;28;20551;-66
2023/10/05 09:48:16;;;;;;;23.43;5.97;;;14.50;86.80;;;;;;4975319;28;20054;-67
2023/10/05 09:50:43;;;;;;;17.92;5.18;;;14.50;86.70;;;;;;4957982;28;20508;-67
2023/10/05 09:53:11;;;;;;;20.40;6.00;;;14.60;86.50;;;;;;4974848;28;20058;-63
2023/10/05 09:55:40;;;;;;;20.35;4.93;;;14.70;86.20;;;;;;4975720;28;20117;-63
2023/10/05 09:58:12;;;;;;;19.35;5.03;;;14.70;86.10;;;;;;4976602;28;20133;-66
2023/10/05 10:03:05;;;;;;;16.95;5.00;;;14.80;86.20;;;;;;4976395;28;20050;-62
2023/10/05 10:05:42;;;;;;;20.27;4.90;;;14.90;86.20;;;;;;4977037;28;20521;-64
2023/10/05 10:08:23;;;;;;;12.18;4.43;;;14.90;85.90;;;;;;4976661;28;20058;-62
2023/10/05 10:11:17;;;;;;;15.68;4.38;;;15.00;85.70;;;;;;4977228;28;20042;-63
2023/10/05 10:13:51;;;;;;;17.00;4.95;;;15.00;85.20;;;;;;4976306;28;20089;-67
2023/10/05 10:16:23;;;;;;;16.15;4.80;;;15.00;85.20;;;;;;4974176;28;20042;-66
2023/10/05 10:18:53;;;;;;;18.98;5.05;;;15.00;85.30;;;;;;4975046;28;20057;-65
2023/10/05 10:21:32;;;;;;;16.92;4.75;;;15.00;85.10;;;;;;4976112;28;20055;-66
2023/10/05 10:24:06;;;;;;;15.07;4.35;;;15.20;84.70;;;;;;4975189;28;20405;-63
2023/10/05 10:26:42;;;;;;;18.90;4.30;;;15.30;84.60;;;;;;4957463;28;20522;-65
2023/10/05 10:29:11;;;;;;;17.75;4.63;;;15.30;84.00;;;;;;4956997;28;20085;-62
2023/10/05 10:31:47;;;;;;;12.25;4.15;;;15.30;83.70;;;;;;4976169;28;20826;-66
2023/10/05 10:34:28;;;;;;;17.30;4.68;;;15.40;83.70;;;;;;4974446;28;20197;-66
2023/10/05 10:36:56;;;;;;;19.90;5.00;;;15.40;83.80;;;;;;4976514;28;20382;-66
2023/10/05 10:39:23;;;;;;;20.05;5.32;;;15.50;84.00;;;;;;4976005;28;20054;-66
2023/10/05 10:42:01;;;;;;;20.58;5.28;;;15.50;83.70;;;;;;4974777;28;20408;-63
2023/10/05 10:44:27;;;;;;;16.15;4.07;;;15.60;83.60;;;;;;4959646;28;20055;-66
2023/10/05 10:47:08;;;;;;;23.58;4.80;;;15.50;82.70;;;;;;4959728;28;20104;-64
2023/10/05 10:49:39;;;;;;;22.08;5.00;;;15.40;83.40;;;;;;4977089;28;20065;-66
2023/10/05 10:52:11;;;;;;;12.13;4.45;;;15.30;83.50;;;;;;4959577;28;20064;-64
2023/10/05 10:54:45;;;;;;;16.42;4.28;;;15.20;83.50;;;;;;4976850;28;20058;-66
2023/10/05 10:57:20;;;;;;;11.05;3.58;;;15.20;83.90;;;;;;4979312;28;20164;-65
2023/10/05 10:59:46;;;;;;;10.55;3.83;;;15.10;84.00;;;;;;4981212;28;20047;-66
2023/10/05 11:02:19;;;;;;;11.63;3.67;;;15.00;84.10;;;;;;4979582;28;20140;-65
2023/10/05 11:04:47;;;;;;;15.40;4.30;;;15.00;84.20;;;;;;4980302;28;20050;-67
2023/10/05 11:07:13;;;;;;;13.13;4.45;;;15.00;84.30;;;;;;4960684;28;20054;-65
2023/10/05 11:09:48;;;;;;;15.88;4.40;;;15.00;84.60;;;;;;4979516;28;20065;-63
2023/10/05 11:12:17;;;;;;;19.23;4.53;;;15.20;84.70;;;;;;4978711;28;20093;-66
2023/10/05 11:14:43;;;;;;;17.42;5.28;;;15.20;84.50;;;;;;4964175;28;20050;-66
2023/10/05 11:17:30;;;;;;;19.55;4.55;;;15.30;84.20;;;;;;4979732;28;20129;-65
2023/10/05 11:20:12;;;;;;;17.70;4.70;;;15.30;84.50;;;;;;4979071;28;20195;-66
2023/10/05 11:22:42;;;;;;;;;;;15.50;84.60;;;;;;4979206;28;20450;-67
2023/10/05 11:25:23;;;;;;;10.77;3.83;;;15.50;84.30;;;;;;4978332;28;20419;-65
2023/10/05 11:27:56;;;;;;;9.15;3.15;;;15.50;83.30;;;;;;4980133;28;21099;-66
2023/10/05 11:30:41;;;;;;;10.25;3.13;;;15.50;83.60;;;;;;4979224;28;20088;-62
2023/10/05 11:33:19;;;;;;;8.63;3.30;;;15.40;83.20;;;;;;4977946;28;21498;-64
2023/10/05 11:35:48;;;;;;;9.68;3.58;;;15.30;83.30;;;;;;4977007;28;20077;-63
2023/10/05 11:38:19;;;;;;;13.98;3.20;;;15.30;83.60;;;;;;4977595;28;20042;-66
2023/10/05 11:40:56;;;;;;;9.70;3.58;;;15.20;83.40;;;;;;4976953;28;20050;-66
2023/10/05 11:43:26;;;;;;;9.85;3.03;;;15.20;83.40;;;;;;4979300;28;20248;-66
2023/10/05 11:45:55;;;;;;;12.73;3.06;;;15.20;83.40;;;;;;4097116;28;10001184;-64
2023/10/05 11:48:25;;;;;;;11.05;3.25;;;15.10;83.50;;;;;;4926890;28;20576;-62
2023/10/05 11:50:52;;;;;;;10.45;3.40;;;15.20;83.30;;;;;;4950920;28;20057;-65
2023/10/05 11:53:21;;;;;;;8.70;3.08;;;15.20;83.20;;;;;;4958268;28;20069;-65
2023/10/05 11:55:49;;;;;;;11.85;3.30;;;15.20;83.20;;;;;;4958383;28;20054;-65
2023/10/05 11:58:17;;;;;;;12.63;3.05;;;15.20;82.80;;;;;;4082325;28;10000127;-62
2023/10/05 12:00:44;;;;;;;9.13;2.58;;;15.20;83.20;;;;;;4944545;28;20441;-63
2023/10/05 12:03:11;;;;;;;12.02;2.88;;;15.20;82.20;;;;;;4973063;28;20059;-65
2023/10/05 12:05:38;;;;;;;7.90;3.20;;;15.20;82.40;;;;;;4979028;28;20049;-65
2023/10/05 12:08:05;;;;;;;10.25;3.05;;;15.30;82.40;;;;;;4978405;28;20046;-64
2023/10/05 12:10:32;;;;;;;13.18;3.40;;;15.40;82.40;;;;;;4979712;28;20054;-67
2023/10/05 12:13:02;;;;;;;9.52;3.03;;;15.50;82.50;;;;;;4978482;28;20524;-65
2023/10/05 12:15:28;;;;;;;14.43;3.63;;;15.50;82.10;;;;;;4978229;28;20066;-63
2023/10/05 12:17:54;;;;;;;11.40;3.30;;;15.60;82.30;;;;;;4979191;28;20650;-66
2023/10/05 12:20:21;;;;;;;12.45;3.58;;;15.70;82.60;;;;;;4979495;28;20046;-66
2023/10/05 12:22:49;;;;;;;12.70;3.60;;;15.80;82.40;;;;;;4978512;28;20541;-66
2023/10/05 12:25:24;;;;;;;11.93;3.42;;;15.80;82.00;;;;;;4978136;28;20054;-64
2023/10/05 12:27:50;;;;;;;15.63;4.25;;;16.00;81.20;;;;;;4979343;28;20108;-64
2023/10/05 12:30:16;;;;;;;15.20;3.65;;;16.00;80.90;;;;;;4978878;28;20811;-66
2023/10/05 12:32:42;;;;;;;12.35;3.30;;;16.00;80.90;;;;;;4978112;28;20509;-63
2023/10/05 12:35:16;;;;;;;18.38;4.28;;;16.00;81.40;;;;;;4968496;28;20505;-65
2023/10/05 12:37:46;;;;;;;19.83;4.78;;;16.00;80.70;;;;;;4977717;28;20054;-67
2023/10/05 12:40:18;;;;;;;17.65;4.25;;;16.00;80.80;;;;;;4978222;28;20520;-65
2023/10/05 12:42:53;;;;;;;21.65;5.28;;;15.60;81.10;;;;;;4977689;28;20497;-67
2023/10/05 12:45:23;;;;;;;16.40;4.82;;;15.30;82.00;;;;;;4962602;28;20488;-67
2023/10/05 12:47:54;;;;;;;20.13;5.57;;;14.90;83.30;;;;;;4977859;28;20421;-66
2023/10/05 12:50:30;;;;;;;26.33;5.72;;;14.70;83.70;;;;;;4978673;28;20109;-66
2023/10/05 12:52:58;;;;;;;13.40;5.07;;;14.70;84.30;;;;;;4978130;28;20103;-66
2023/10/05 12:55:26;;;;;;;16.65;4.95;;;14.70;84.50;;;;;;4978126;28;20497;-67
2023/10/05 12:57:53;;;;;;;15.73;4.28;;;14.80;84.80;;;;;;4978807;28;20062;-65
2023/10/05 13:00:36;;;;;;;21.42;4.57;;;14.80;84.90;;;;;;4977807;28;20078;-66
2023/10/05 13:03:01;;;;;;;14.38;4.25;;;14.90;85.10;;;;;;4977652;28;20050;-64
2023/10/05 13:05:43;;;;;;;12.20;3.15;;;15.00;85.50;;;;;;4977611;28;20068;-67
2023/10/05 13:08:10;;;;;;;;;;;15.00;84.10;;;;;;4976109;28;20054;-65
2023/10/05 13:10:39;;;;;;;15.98;3.72;;;15.00;83.90;;;;;;4976671;28;20289;-65
2023/10/05 13:13:18;;;;;;;12.85;3.42;;;15.10;84.20;;;;;;4976619;28;20049;-66
2023/10/05 13:15:45;;;;;;;9.57;3.40;;;15.20;84.00;;;;;;4977778;28;20413;-67
2023/10/05 13:18:20;;;;;;;13.02;3.17;;;15.30;83.70;;;;;;4975197;28;20058;-64
2023/10/05 13:20:50;;;;;;;14.45;3.58;;;15.30;83.70;;;;;;4977399;28;20050;-66
2023/10/05 13:23:19;;;;;;;9.93;3.80;;;15.40;83.90;;;;;;4976318;28;20054;-67